createdAt,value
2023-01-21T00:02:47.827Z,-30.02
2023-01-21T00:07:50.545Z,-30.06
2023-01-21T00:12:53.291Z,-30.07
2023-01-21T00:17:55.950Z,-30.07
2023-01-21T00:22:58.727Z,-30.13
2023-01-21T00:28:01.728Z,-30.17
2023-01-21T00:33:04.957Z,-30.17
2023-01-21T00:38:07.584Z,-30.22
2023-01-21T00:43:10.316Z,-30.28
2023-01-21T00:48:13.048Z,-30.36
2023-01-21T00:53:15.673Z,-30.53
2023-01-21T00:58:18.528Z,-30.50
2023-01-21T01:03:21.405Z,-30.52
2023-01-21T01:08:24.392Z,-30.60
2023-01-21T01:13:27.992Z,-30.59
2023-01-21T01:18:32.924Z,-30.63
2023-01-21T01:23:35.625Z,-30.76
2023-01-21T01:28:38.331Z,-30.81
2023-01-21T01:33:41.361Z,-30.73
2023-01-21T01:38:45.034Z,-30.79
2023-01-21T01:44:00.697Z,-30.86
2023-01-21T01:49:15.549Z,-30.90
2023-01-21T01:54:22.747Z,-30.88
2023-01-21T01:59:25.611Z,-30.92
2023-01-21T02:04:31.457Z,-30.94
2023-01-21T02:09:34.343Z,-31.04
2023-01-21T02:14:43.159Z,-31.03
2023-01-21T02:20:43.247Z,-31.10
2023-01-21T02:26:10.382Z,-31.04
2023-01-21T02:31:18.825Z,-31.12
2023-01-21T02:36:51.854Z,-31.15
2023-01-21T02:42:08.557Z,-31.17
2023-01-21T02:47:30.738Z,-31.17
2023-01-21T02:52:33.513Z,-31.15
2023-01-21T02:57:39.018Z,-31.17
2023-01-21T03:02:52.526Z,-31.11
2023-01-21T03:08:10.341Z,-31.14
2023-01-21T03:13:43.356Z,-31.10
2023-01-21T03:18:47.622Z,-31.15
2023-01-21T03:23:51.913Z,-31.43
2023-01-21T03:28:56.663Z,-31.26
2023-01-21T03:34:01.903Z,-31.18
2023-01-21T03:39:10.293Z,-31.08
2023-01-21T03:44:13.138Z,-30.92
2023-01-21T03:49:35.529Z,-30.71
2023-01-21T03:54:38.191Z,-30.52
2023-01-21T03:59:40.902Z,-30.31
2023-01-21T04:04:43.689Z,-30.31
2023-01-21T04:09:46.401Z,-30.31
2023-01-21T04:14:49.210Z,-30.21
2023-01-21T04:19:51.974Z,-30.03
2023-01-21T04:24:54.594Z,-30.16
2023-01-21T04:29:57.533Z,-30.19
2023-01-21T04:35:00.209Z,-30.29
2023-01-21T04:40:02.904Z,-30.17
2023-01-21T04:45:06.304Z,-30.03
2023-01-21T04:50:10.193Z,-29.84
2023-01-21T04:55:12.999Z,-29.41
2023-01-21T05:00:16.663Z,-29.09
2023-01-21T05:05:20.175Z,-29.02
2023-01-21T05:10:22.942Z,-28.78
2023-01-21T05:15:25.709Z,-28.59
2023-01-21T05:20:28.474Z,-28.11
2023-01-21T05:25:31.125Z,-27.68
2023-01-21T05:30:33.761Z,-27.61
2023-01-21T05:35:36.454Z,-27.52
2023-01-21T05:40:39.113Z,-27.35
2023-01-21T05:45:41.800Z,-27.09
2023-01-21T05:50:44.545Z,-27.18
2023-01-21T05:55:47.308Z,-26.83
2023-01-21T06:00:50.184Z,-26.72
2023-01-21T06:05:52.888Z,-26.64
2023-01-21T06:10:56.788Z,-26.59
2023-01-21T06:15:59.533Z,-26.43
2023-01-21T06:21:02.583Z,-26.59
2023-01-21T06:26:05.782Z,-26.47
2023-01-21T06:31:08.594Z,-26.57
2023-01-21T06:36:11.355Z,-26.72
2023-01-21T06:41:14.029Z,-26.52
2023-01-21T06:46:16.997Z,-26.28
2023-01-21T06:51:19.844Z,-26.13
2023-01-21T06:56:22.855Z,-25.97
2023-01-21T07:01:25.590Z,-25.93
2023-01-21T07:06:28.296Z,-25.94
2023-01-21T07:11:31.834Z,-26.05
2023-01-21T07:16:34.570Z,-25.93
2023-01-21T07:21:37.306Z,-25.94
2023-01-21T07:26:40.199Z,-25.83
2023-01-21T07:31:44.266Z,-25.84
2023-01-21T07:36:47.132Z,-25.87
2023-01-21T07:41:49.887Z,-25.96
2023-01-21T07:46:53.772Z,-26.07
2023-01-21T07:51:59.343Z,-26.07
2023-01-21T07:57:02.332Z,-25.96
2023-01-21T08:02:05.197Z,-25.84
2023-01-21T08:07:12.795Z,-26.02
2023-01-21T08:12:15.757Z,-26.14
2023-01-21T08:17:18.521Z,-26.37
2023-01-21T08:22:21.469Z,-26.26
2023-01-21T08:27:24.528Z,-26.41
2023-01-21T08:32:30.461Z,-26.44
2023-01-21T08:37:33.257Z,-26.28
2023-01-21T08:42:35.939Z,-26.39
2023-01-21T08:47:38.711Z,-26.40
2023-01-21T08:52:41.428Z,-26.41
2023-01-21T08:57:44.232Z,-26.60
2023-01-21T09:02:47.193Z,-26.77
2023-01-21T09:07:50.000Z,-26.87
2023-01-21T09:12:54.084Z,-26.89
2023-01-21T09:17:56.977Z,-27.12
2023-01-21T09:22:59.799Z,-27.09
2023-01-21T09:28:04.250Z,-27.19
2023-01-21T09:33:06.955Z,-27.30
2023-01-21T09:38:09.642Z,-27.41
2023-01-21T09:43:18.157Z,-27.38
2023-01-21T09:48:28.995Z,-27.43
2023-01-21T09:53:40.793Z,-27.46
2023-01-21T09:58:49.692Z,-27.57
2023-01-21T10:03:57.132Z,-27.63
2023-01-21T10:09:16.289Z,-27.73
2023-01-21T10:14:42.640Z,-27.78
2023-01-21T10:19:53.313Z,-27.96
2023-01-21T10:24:55.776Z,-28.18
2023-01-21T10:30:06.634Z,-27.97
2023-01-21T10:35:20.779Z,-28.05
2023-01-21T10:40:43.710Z,-28.20
2023-01-21T10:46:02.924Z,-28.22
2023-01-21T10:51:14.765Z,-28.27
2023-01-21T10:56:26.602Z,-28.23
2023-01-21T11:01:38.504Z,-28.22
2023-01-21T11:06:41.818Z,-28.29
2023-01-21T11:11:46.733Z,-28.25
2023-01-21T11:16:50.640Z,-28.36
2023-01-21T11:22:07.227Z,-28.32
2023-01-21T11:27:22.280Z,-28.37
2023-01-21T11:32:27.757Z,-28.36
2023-01-21T11:37:31.599Z,-28.33
2023-01-21T11:42:34.328Z,-28.34
2023-01-21T11:47:48.957Z,-28.38
2023-01-21T11:53:14.183Z,-28.40
2023-01-21T11:58:20.032Z,-28.42
2023-01-21T12:03:27.194Z,-28.71
2023-01-21T12:08:33.081Z,-28.43
2023-01-21T12:13:46.582Z,-28.46
2023-01-21T12:19:17.003Z,-28.42
2023-01-21T12:24:34.992Z,-28.66
2023-01-21T12:30:08.463Z,-28.58
2023-01-21T12:35:15.588Z,-28.58
2023-01-21T12:40:35.100Z,-29.16
2023-01-21T12:45:42.106Z,-28.77
2023-01-21T12:50:50.592Z,-28.74
2023-01-21T12:56:18.904Z,-28.85
2023-01-21T13:01:42.142Z,-29.06
2023-01-21T13:06:54.133Z,-29.18
2023-01-21T13:12:13.417Z,-29.30
2023-01-21T13:17:19.855Z,-29.36
2023-01-21T13:23:01.994Z,-29.49
2023-01-21T13:28:23.039Z,-29.59
2023-01-21T13:33:38.654Z,-29.67
2023-01-21T13:38:54.043Z,-29.74
2023-01-21T13:44:14.448Z,-29.80
2023-01-21T13:49:35.284Z,-29.86
2023-01-21T13:55:25.725Z,-29.97
2023-01-21T14:00:37.366Z,-30.01
2023-01-21T14:05:42.261Z,-30.06
2023-01-21T14:10:54.556Z,-30.23
2023-01-21T14:16:09.737Z,-30.17
2023-01-21T14:21:15.879Z,-30.27
2023-01-21T14:26:49.077Z,-30.41
2023-01-21T14:31:56.239Z,-30.52
2023-01-21T14:37:01.924Z,-30.59
2023-01-21T14:42:15.200Z,-30.59
2023-01-21T14:47:29.657Z,-30.73
2023-01-21T14:52:43.737Z,-30.83
2023-01-21T14:57:46.734Z,-30.87
2023-01-21T15:03:28.388Z,-30.85
2023-01-21T15:08:45.430Z,-30.95
2023-01-21T15:14:15.419Z,-30.93
2023-01-21T15:19:30.061Z,-30.97
2023-01-21T15:24:35.874Z,-31.06
2023-01-21T15:29:45.568Z,-31.19
2023-01-21T15:34:50.115Z,-31.32
2023-01-21T15:39:58.882Z,-31.25
2023-01-21T15:45:24.363Z,-31.35
2023-01-21T15:50:56.876Z,-31.36
2023-01-21T15:56:08.620Z,-31.37
2023-01-21T16:01:37.481Z,-31.47
2023-01-21T16:07:14.239Z,-31.52
2023-01-21T16:12:29.112Z,-31.59
2023-01-21T16:17:34.729Z,-31.66
2023-01-21T16:22:39.364Z,-31.74
2023-01-21T16:27:47.392Z,-31.87
2023-01-21T16:33:07.903Z,-31.92
2023-01-21T16:38:15.674Z,-31.90
2023-01-21T16:43:23.741Z,-31.93
2023-01-21T16:48:31.812Z,-31.94
2023-01-21T16:53:34.570Z,-31.99
2023-01-21T16:58:37.306Z,-32.00
2023-01-21T17:03:40.096Z,-32.04
2023-01-21T17:08:46.931Z,-32.07
2023-01-21T17:13:49.919Z,-32.08
2023-01-21T17:18:58.368Z,-32.03
2023-01-21T17:24:03.957Z,-32.13
2023-01-21T17:29:22.912Z,-32.11
2023-01-21T17:34:30.572Z,-32.19
2023-01-21T17:39:45.423Z,-32.11
2023-01-21T17:44:49.848Z,-32.29
2023-01-21T17:50:09.465Z,-32.20
2023-01-21T17:55:13.044Z,-32.13
2023-01-21T18:00:27.289Z,-32.23
2023-01-21T18:05:30.502Z,-32.23
2023-01-21T18:10:33.399Z,-32.30
2023-01-21T18:15:36.064Z,-32.22
2023-01-21T18:20:39.091Z,-32.32
2023-01-21T18:25:42.543Z,-32.40
2023-01-21T18:30:45.542Z,-32.37
2023-01-21T18:35:50.101Z,-32.35
2023-01-21T18:40:53.876Z,-32.37
2023-01-21T18:45:56.653Z,-32.25
2023-01-21T18:50:59.367Z,-32.29
2023-01-21T18:56:02.122Z,-32.31
2023-01-21T19:01:17.292Z,-32.27
2023-01-21T19:06:24.934Z,-32.23
2023-01-21T19:11:27.659Z,-32.22
2023-01-21T19:16:30.369Z,-32.15
2023-01-21T19:21:33.589Z,-32.12
2023-01-21T19:26:36.600Z,-32.22
2023-01-21T19:31:39.366Z,-32.23
2023-01-21T19:36:42.158Z,-32.23
2023-01-21T19:41:45.073Z,-32.25
2023-01-21T19:46:47.935Z,-32.23
2023-01-21T19:51:50.671Z,-32.30
2023-01-21T19:56:53.406Z,-32.26
2023-01-21T20:01:56.090Z,-32.37
2023-01-21T20:06:58.931Z,-32.45
2023-01-21T20:12:03.507Z,-32.43
2023-01-21T20:17:11.804Z,-32.43
2023-01-21T20:22:14.475Z,-32.48
2023-01-21T20:27:17.136Z,-32.40
2023-01-21T20:32:21.148Z,-32.41
2023-01-21T20:37:23.953Z,-32.36
2023-01-21T20:42:27.944Z,-32.36
2023-01-21T20:47:38.085Z,-32.37
2023-01-21T20:52:41.664Z,-32.44
2023-01-21T20:57:44.425Z,-32.41
2023-01-21T21:02:47.619Z,-32.48
2023-01-21T21:07:50.520Z,-32.62
2023-01-21T21:12:53.573Z,-32.52
2023-01-21T21:17:56.746Z,-32.57
2023-01-21T21:22:59.442Z,-32.64
2023-01-21T21:28:02.184Z,-32.57
2023-01-21T21:33:04.917Z,-32.58
2023-01-21T21:38:18.251Z,-32.65
2023-01-21T21:43:36.001Z,-32.72
2023-01-21T21:48:38.770Z,-32.75
2023-01-21T21:53:41.813Z,-32.78
2023-01-21T21:58:44.478Z,-32.62
2023-01-21T22:03:47.401Z,-32.77
2023-01-21T22:08:50.201Z,-32.44
2023-01-21T22:13:53.929Z,-32.64
2023-01-21T22:19:00.763Z,-32.36
2023-01-21T22:24:06.030Z,-32.36
2023-01-21T22:29:08.920Z,-32.25
2023-01-21T22:34:14.804Z,-32.21
2023-01-21T22:39:17.667Z,-32.17
2023-01-21T22:44:20.433Z,-32.21
2023-01-21T22:49:23.112Z,-32.20
2023-01-21T22:54:25.805Z,-32.21
2023-01-21T22:59:28.579Z,-32.21
2023-01-21T23:04:31.235Z,-32.27
2023-01-21T23:09:34.270Z,-32.33
2023-01-21T23:14:36.899Z,-32.31
2023-01-21T23:19:39.929Z,-32.33
2023-01-21T23:24:42.539Z,-32.27
2023-01-21T23:29:45.179Z,-32.37
2023-01-21T23:34:47.990Z,-32.30
2023-01-21T23:39:50.872Z,-32.48
2023-01-21T23:44:53.472Z,-32.57
2023-01-21T23:49:56.160Z,-32.62
2023-01-21T23:54:58.905Z,-32.67
